sensor_id;sensor_type;location;lat;lon;timestamp;pressure;altitude;pressure_sealevel;temperature
72054;BMP280;59918;51.280;7.950;2023-06-14T00:00:45;97837.06;;;13.97
72054;BMP280;59918;51.280;7.950;2023-06-14T00:03:11;97822.59;;;13.96
72054;BMP280;59918;51.280;7.950;2023-06-14T00:05:36;97822.03;;;13.94
72054;BMP280;59918;51.280;7.950;2023-06-14T00:08:01;97830.00;;;13.93
72054;BMP280;59918;51.280;7.950;2023-06-14T00:10:33;97834.41;;;13.92
72054;BMP280;59918;51.280;7.950;2023-06-14T00:12:58;97842.47;;;13.85
72054;BMP280;59918;51.280;7.950;2023-06-14T00:15:23;97845.50;;;13.82
72054;BMP280;59918;51.280;7.950;2023-06-14T00:17:48;97837.16;;;13.80
72054;BMP280;59918;51.280;7.950;2023-06-14T00:20:14;97844.34;;;13.78
72054;BMP280;59918;51.280;7.950;2023-06-14T00:22:39;97843.78;;;13.76
72054;BMP280;59918;51.280;7.950;2023-06-14T00:25:09;97846.59;;;13.74
72054;BMP280;59918;51.280;7.950;2023-06-14T00:27:34;97839.09;;;13.73
72054;BMP280;59918;51.280;7.950;2023-06-14T00:30:00;97838.53;;;13.71
72054;BMP280;59918;51.280;7.950;2023-06-14T00:32:25;97844.13;;;13.68
72054;BMP280;59918;51.280;7.950;2023-06-14T00:34:50;97851.09;;;13.67
72054;BMP280;59918;51.280;7.950;2023-06-14T00:37:21;97842.56;;;13.67
72054;BMP280;59918;51.280;7.950;2023-06-14T00:39:46;97847.59;;;13.62
72054;BMP280;59918;51.280;7.950;2023-06-14T00:42:23;97854.91;;;13.65
72054;BMP280;59918;51.280;7.950;2023-06-14T00:44:48;97845.78;;;13.62
72054;BMP280;59918;51.280;7.950;2023-06-14T00:47:13;97853.31;;;13.64
72054;BMP280;59918;51.280;7.950;2023-06-14T00:49:39;97850.38;;;13.60
72054;BMP280;59918;51.280;7.950;2023-06-14T00:52:07;97850.63;;;13.59
72054;BMP280;59918;51.280;7.950;2023-06-14T00:54:33;97846.91;;;13.55
72054;BMP280;59918;51.280;7.950;2023-06-14T00:56:58;97853.63;;;13.56
72054;BMP280;59918;51.280;7.950;2023-06-14T00:59:26;97854.00;;;13.59
72054;BMP280;59918;51.280;7.950;2023-06-14T01:01:51;97855.66;;;13.54
72054;BMP280;59918;51.280;7.950;2023-06-14T01:04:19;97863.19;;;13.55
72054;BMP280;59918;51.280;7.950;2023-06-14T01:06:59;97867.66;;;13.48
72054;BMP280;59918;51.280;7.950;2023-06-14T01:12:23;97871.00;;;13.38
72054;BMP280;59918;51.280;7.950;2023-06-14T01:14:50;97870.06;;;13.32
72054;BMP280;59918;51.280;7.950;2023-06-14T01:17:22;97865.56;;;13.28
72054;BMP280;59918;51.280;7.950;2023-06-14T01:19:48;97875.53;;;13.24
72054;BMP280;59918;51.280;7.950;2023-06-14T01:22:15;97877.56;;;13.22
72054;BMP280;59918;51.280;7.950;2023-06-14T01:24:46;97878.22;;;13.18
72054;BMP280;59918;51.280;7.950;2023-06-14T01:27:12;97877.84;;;13.14
72054;BMP280;59918;51.280;7.950;2023-06-14T01:29:38;97885.25;;;13.11
72054;BMP280;59918;51.280;7.950;2023-06-14T01:32:12;97881.31;;;13.09
72054;BMP280;59918;51.280;7.950;2023-06-14T01:34:37;97889.56;;;12.99
72054;BMP280;59918;51.280;7.950;2023-06-14T01:37:03;97881.44;;;12.96
72054;BMP280;59918;51.280;7.950;2023-06-14T01:39:28;97882.31;;;12.90
72054;BMP280;59918;51.280;7.950;2023-06-14T01:41:58;97888.91;;;12.86
72054;BMP280;59918;51.280;7.950;2023-06-14T01:44:24;97898.31;;;12.80
72054;BMP280;59918;51.280;7.950;2023-06-14T01:46:50;97899.94;;;12.75
72054;BMP280;59918;51.280;7.950;2023-06-14T01:49:16;97894.28;;;12.67
72054;BMP280;59918;51.280;7.950;2023-06-14T01:51:44;97893.34;;;12.61
72054;BMP280;59918;51.280;7.950;2023-06-14T01:54:10;97885.88;;;12.53
72054;BMP280;59918;51.280;7.950;2023-06-14T01:56:35;97887.72;;;12.46
72054;BMP280;59918;51.280;7.950;2023-06-14T01:59:00;97881.59;;;12.41
72054;BMP280;59918;51.280;7.950;2023-06-14T02:01:25;97880.25;;;12.38
72054;BMP280;59918;51.280;7.950;2023-06-14T02:03:51;97885.41;;;12.38
72054;BMP280;59918;51.280;7.950;2023-06-14T02:06:16;97876.31;;;12.36
72054;BMP280;59918;51.280;7.950;2023-06-14T02:08:44;97871.16;;;12.36
72054;BMP280;59918;51.280;7.950;2023-06-14T02:11:09;97874.59;;;12.30
72054;BMP280;59918;51.280;7.950;2023-06-14T02:13:34;97875.81;;;12.28
72054;BMP280;59918;51.280;7.950;2023-06-14T02:16:00;97876.22;;;12.25
72054;BMP280;59918;51.280;7.950;2023-06-14T02:18:25;97879.44;;;12.20
72054;BMP280;59918;51.280;7.950;2023-06-14T02:20:51;97883.81;;;12.20
72054;BMP280;59918;51.280;7.950;2023-06-14T02:23:16;97872.69;;;12.19
72054;BMP280;59918;51.280;7.950;2023-06-14T02:25:44;97877.84;;;12.19
72054;BMP280;59918;51.280;7.950;2023-06-14T02:28:09;97877.72;;;12.14
72054;BMP280;59918;51.280;7.950;2023-06-14T02:30:35;97874.19;;;12.09
72054;BMP280;59918;51.280;7.950;2023-06-14T02:33:00;97876.03;;;12.02
72054;BMP280;59918;51.280;7.950;2023-06-14T02:35:25;97873.88;;;11.99
72054;BMP280;59918;51.280;7.950;2023-06-14T02:37:50;97882.25;;;11.95
72054;BMP280;59918;51.280;7.950;2023-06-14T02:40:16;97873.94;;;11.93
72054;BMP280;59918;51.280;7.950;2023-06-14T02:42:44;97868.78;;;11.93
72054;BMP280;59918;51.280;7.950;2023-06-14T02:45:10;97872.53;;;11.90
72054;BMP280;59918;51.280;7.950;2023-06-14T02:47:35;97877.34;;;11.87
72054;BMP280;59918;51.280;7.950;2023-06-14T02:50:00;97884.91;;;11.82
72054;BMP280;59918;51.280;7.950;2023-06-14T02:52:26;97878.97;;;11.81
72054;BMP280;59918;51.280;7.950;2023-06-14T02:54:51;97882.53;;;11.80
72054;BMP280;59918;51.280;7.950;2023-06-14T02:57:16;97885.31;;;11.79
72054;BMP280;59918;51.280;7.950;2023-06-14T02:59:50;97888.09;;;11.77
72054;BMP280;59918;51.280;7.950;2023-06-14T03:02:15;97888.94;;;11.71
72054;BMP280;59918;51.280;7.950;2023-06-14T03:04:45;97898.47;;;11.71
72054;BMP280;59918;51.280;7.950;2023-06-14T03:07:10;97900.06;;;11.66
72054;BMP280;59918;51.280;7.950;2023-06-14T03:09:36;97903.06;;;11.63
72054;BMP280;59918;51.280;7.950;2023-06-14T03:12:01;97914.78;;;11.59
72054;BMP280;59918;51.280;7.950;2023-06-14T03:14:27;97921.56;;;11.53
72054;BMP280;59918;51.280;7.950;2023-06-14T03:16:52;97915.84;;;11.45
72054;BMP280;59918;51.280;7.950;2023-06-14T03:19:23;97923.38;;;11.40
72054;BMP280;59918;51.280;7.950;2023-06-14T03:21:48;97921.19;;;11.37
72054;BMP280;59918;51.280;7.950;2023-06-14T03:24:14;97929.13;;;11.35
72054;BMP280;59918;51.280;7.950;2023-06-14T03:26:39;97926.78;;;11.34
72054;BMP280;59918;51.280;7.950;2023-06-14T03:29:04;97928.97;;;11.30
72054;BMP280;59918;51.280;7.950;2023-06-14T03:31:36;97931.16;;;11.27
72054;BMP280;59918;51.280;7.950;2023-06-14T03:34:01;97934.34;;;11.23
72054;BMP280;59918;51.280;7.950;2023-06-14T03:36:27;97935.53;;;11.20
72054;BMP280;59918;51.280;7.950;2023-06-14T03:38:52;97939.09;;;11.19
72054;BMP280;59918;51.280;7.950;2023-06-14T03:41:23;97932.97;;;11.20
72054;BMP280;59918;51.280;7.950;2023-06-14T03:43:48;97936.72;;;11.18
72054;BMP280;59918;51.280;7.950;2023-06-14T03:46:14;97947.00;;;11.18
72054;BMP280;59918;51.280;7.950;2023-06-14T03:48:39;97944.66;;;11.16
72054;BMP280;59918;51.280;7.950;2023-06-14T03:51:04;97949.81;;;11.16
72054;BMP280;59918;51.280;7.950;2023-06-14T03:53:36;97948.41;;;11.14
72054;BMP280;59918;51.280;7.950;2023-06-14T03:56:01;97956.94;;;11.14
72054;BMP280;59918;51.280;7.950;2023-06-14T03:58:26;97960.13;;;11.16
72054;BMP280;59918;51.280;7.950;2023-06-14T04:00:51;97963.03;;;11.20
72054;BMP280;59918;51.280;7.950;2023-06-14T04:03:17;97964.03;;;11.25
72054;BMP280;59918;51.280;7.950;2023-06-14T04:05:51;97971.72;;;11.31
72054;BMP280;59918;51.280;7.950;2023-06-14T04:08:16;97982.22;;;11.36
72054;BMP280;59918;51.280;7.950;2023-06-14T04:10:41;97979.25;;;11.39
72054;BMP280;59918;51.280;7.950;2023-06-14T04:13:10;97981.81;;;11.46
72054;BMP280;59918;51.280;7.950;2023-06-14T04:15:35;97978.22;;;11.47
72054;BMP280;59918;51.280;7.950;2023-06-14T04:18:00;97990.09;;;11.54
72054;BMP280;59918;51.280;7.950;2023-06-14T04:20:25;97987.91;;;11.58
72054;BMP280;59918;51.280;7.950;2023-06-14T04:22:51;97988.88;;;11.63
72054;BMP280;59918;51.280;7.950;2023-06-14T04:25:16;97993.19;;;11.69
72054;BMP280;59918;51.280;7.950;2023-06-14T04:27:47;97995.16;;;11.73
72054;BMP280;59918;51.280;7.950;2023-06-14T04:30:13;97998.88;;;11.77
72054;BMP280;59918;51.280;7.950;2023-06-14T04:32:38;97996.69;;;11.81
72054;BMP280;59918;51.280;7.950;2023-06-14T04:35:05;97995.06;;;11.86
72054;BMP280;59918;51.280;7.950;2023-06-14T04:37:33;98005.56;;;11.91
72054;BMP280;59918;51.280;7.950;2023-06-14T04:39:58;97996.22;;;11.90
72054;BMP280;59918;51.280;7.950;2023-06-14T04:42:24;97992.22;;;11.94
72054;BMP280;59918;51.280;7.950;2023-06-14T04:44:49;98002.16;;;11.97
72054;BMP280;59918;51.280;7.950;2023-06-14T04:47:14;97995.38;;;12.02
72054;BMP280;59918;51.280;7.950;2023-06-14T04:49:39;98003.63;;;12.11
72054;BMP280;59918;51.280;7.950;2023-06-14T04:52:05;98002.81;;;12.17
72054;BMP280;59918;51.280;7.950;2023-06-14T04:54:33;98001.00;;;12.24
72054;BMP280;59918;51.280;7.950;2023-06-14T04:56:58;97998.56;;;12.29
72054;BMP280;59918;51.280;7.950;2023-06-14T04:59:24;97995.94;;;12.35
72054;BMP280;59918;51.280;7.950;2023-06-14T05:01:50;97997.25;;;12.44
72054;BMP280;59918;51.280;7.950;2023-06-14T05:04:16;97993.06;;;12.49
72054;BMP280;59918;51.280;7.950;2023-06-14T05:06:45;98003.09;;;12.57
72054;BMP280;59918;51.280;7.950;2023-06-14T05:09:14;98000.06;;;12.67
72054;BMP280;59918;51.280;7.950;2023-06-14T05:11:39;97998.41;;;12.72
72054;BMP280;59918;51.280;7.950;2023-06-14T05:14:04;97999.53;;;12.82
72054;BMP280;59918;51.280;7.950;2023-06-14T05:16:32;98002.63;;;12.91
72054;BMP280;59918;51.280;7.950;2023-06-14T05:18:58;98001.78;;;12.97
72054;BMP280;59918;51.280;7.950;2023-06-14T05:21:23;97999.50;;;13.07
72054;BMP280;59918;51.280;7.950;2023-06-14T05:23:48;98003.59;;;13.14
72054;BMP280;59918;51.280;7.950;2023-06-14T05:26:13;97996.34;;;13.22
72054;BMP280;59918;51.280;7.950;2023-06-14T05:28:39;97999.97;;;13.33
72054;BMP280;59918;51.280;7.950;2023-06-14T05:31:04;98005.88;;;13.40
72054;BMP280;59918;51.280;7.950;2023-06-14T05:33:33;98006.38;;;13.48
72054;BMP280;59918;51.280;7.950;2023-06-14T05:35:58;98004.06;;;13.58
72054;BMP280;59918;51.280;7.950;2023-06-14T05:38:23;98004.34;;;13.68
72054;BMP280;59918;51.280;7.950;2023-06-14T05:40:48;98001.03;;;13.79
72054;BMP280;59918;51.280;7.950;2023-06-14T05:43:14;98000.06;;;13.91
72054;BMP280;59918;51.280;7.950;2023-06-14T05:45:39;98007.88;;;14.02
72054;BMP280;59918;51.280;7.950;2023-06-14T05:48:04;98000.59;;;14.11
72054;BMP280;59918;51.280;7.950;2023-06-14T05:50:33;98012.09;;;14.26
72054;BMP280;59918;51.280;7.950;2023-06-14T05:52:58;97996.38;;;14.39
72054;BMP280;59918;51.280;7.950;2023-06-14T05:55:23;98007.31;;;14.52
72054;BMP280;59918;51.280;7.950;2023-06-14T05:57:48;98002.94;;;14.64
72054;BMP280;59918;51.280;7.950;2023-06-14T06:00:14;98006.66;;;14.79
72054;BMP280;59918;51.280;7.950;2023-06-14T06:02:41;98012.75;;;14.96
72054;BMP280;59918;51.280;7.950;2023-06-14T06:05:09;98006.00;;;15.18
72054;BMP280;59918;51.280;7.950;2023-06-14T06:07:36;97993.91;;;15.34
72054;BMP280;59918;51.280;7.950;2023-06-14T06:10:04;97996.34;;;15.52
72054;BMP280;59918;51.280;7.950;2023-06-14T06:12:33;97992.03;;;15.69
72054;BMP280;59918;51.280;7.950;2023-06-14T06:14:59;97990.84;;;15.88
72054;BMP280;59918;51.280;7.950;2023-06-14T06:17:25;97983.41;;;16.07
72054;BMP280;59918;51.280;7.950;2023-06-14T06:19:50;97992.56;;;16.26
72054;BMP280;59918;51.280;7.950;2023-06-14T06:22:16;97989.53;;;16.45
72054;BMP280;59918;51.280;7.950;2023-06-14T06:24:41;97989.50;;;16.62
72054;BMP280;59918;51.280;7.950;2023-06-14T06:27:09;97990.31;;;16.79
72054;BMP280;59918;51.280;7.950;2023-06-14T06:29:35;97993.91;;;16.94
72054;BMP280;59918;51.280;7.950;2023-06-14T06:32:01;97998.59;;;17.13
72054;BMP280;59918;51.280;7.950;2023-06-14T06:34:26;97998.34;;;17.31
72054;BMP280;59918;51.280;7.950;2023-06-14T06:36:51;97997.19;;;17.43
72054;BMP280;59918;51.280;7.950;2023-06-14T06:39:17;97995.78;;;17.57
72054;BMP280;59918;51.280;7.950;2023-06-14T06:41:45;97996.75;;;17.72
72054;BMP280;59918;51.280;7.950;2023-06-14T06:44:10;97990.19;;;17.91
72054;BMP280;59918;51.280;7.950;2023-06-14T06:46:36;97992.41;;;18.04
72054;BMP280;59918;51.280;7.950;2023-06-14T06:49:01;97992.03;;;18.17
72054;BMP280;59918;51.280;7.950;2023-06-14T06:51:26;98003.59;;;18.30
72054;BMP280;59918;51.280;7.950;2023-06-14T06:53:52;98005.81;;;18.43
72054;BMP280;59918;51.280;7.950;2023-06-14T06:56:21;98004.38;;;18.57
72054;BMP280;59918;51.280;7.950;2023-06-14T06:58:47;97997.69;;;18.66
72054;BMP280;59918;51.280;7.950;2023-06-14T07:01:12;98010.72;;;18.71
72054;BMP280;59918;51.280;7.950;2023-06-14T07:03:37;98004.50;;;18.77
72054;BMP280;59918;51.280;7.950;2023-06-14T07:06:02;98010.84;;;18.86
72054;BMP280;59918;51.280;7.950;2023-06-14T07:08:28;98014.78;;;18.93
72054;BMP280;59918;51.280;7.950;2023-06-14T07:10:59;98010.94;;;19.01
72054;BMP280;59918;51.280;7.950;2023-06-14T07:13:24;98013.59;;;19.05
72054;BMP280;59918;51.280;7.950;2023-06-14T07:15:50;98001.16;;;19.17
72054;BMP280;59918;51.280;7.950;2023-06-14T07:18:15;98013.47;;;19.27
72054;BMP280;59918;51.280;7.950;2023-06-14T07:20:40;98016.34;;;19.30
72054;BMP280;59918;51.280;7.950;2023-06-14T07:23:09;98016.84;;;19.27
72054;BMP280;59918;51.280;7.950;2023-06-14T07:25:34;98029.13;;;19.27
72054;BMP280;59918;51.280;7.950;2023-06-14T07:27:59;98027.81;;;19.34
72054;BMP280;59918;51.280;7.950;2023-06-14T07:30:25;98024.75;;;19.42
72054;BMP280;59918;51.280;7.950;2023-06-14T07:32:50;98027.13;;;19.48
72054;BMP280;59918;51.280;7.950;2023-06-14T07:35:15;98019.31;;;19.48
72054;BMP280;59918;51.280;7.950;2023-06-14T07:37:40;98029.75;;;19.53
72054;BMP280;59918;51.280;7.950;2023-06-14T07:40:09;98030.81;;;19.52
72054;BMP280;59918;51.280;7.950;2023-06-14T07:42:34;98032.66;;;19.57
72054;BMP280;59918;51.280;7.950;2023-06-14T07:45:00;98033.22;;;19.64
72054;BMP280;59918;51.280;7.950;2023-06-14T07:47:25;98032.44;;;19.73
72054;BMP280;59918;51.280;7.950;2023-06-14T07:49:50;98034.31;;;19.77
72054;BMP280;59918;51.280;7.950;2023-06-14T07:52:16;98037.50;;;19.89
72054;BMP280;59918;51.280;7.950;2023-06-14T07:54:41;98039.34;;;19.99
72054;BMP280;59918;51.280;7.950;2023-06-14T07:57:09;98036.25;;;20.12
72054;BMP280;59918;51.280;7.950;2023-06-14T07:59:35;98031.31;;;20.25
72054;BMP280;59918;51.280;7.950;2023-06-14T08:02:00;98037.06;;;20.32
72054;BMP280;59918;51.280;7.950;2023-06-14T08:04:25;98029.78;;;20.48
72054;BMP280;59918;51.280;7.950;2023-06-14T08:06:51;98038.16;;;20.65
72054;BMP280;59918;51.280;7.950;2023-06-14T08:09:16;98028.78;;;20.74
72054;BMP280;59918;51.280;7.950;2023-06-14T08:11:41;98031.13;;;20.86
72054;BMP280;59918;51.280;7.950;2023-06-14T08:14:10;98032.16;;;20.99
72054;BMP280;59918;51.280;7.950;2023-06-14T08:16:35;98033.16;;;21.18
72054;BMP280;59918;51.280;7.950;2023-06-14T08:19:00;98024.75;;;21.41
72054;BMP280;59918;51.280;7.950;2023-06-14T08:21:25;98040.44;;;21.56
72054;BMP280;59918;51.280;7.950;2023-06-14T08:23:51;98032.56;;;21.56
72054;BMP280;59918;51.280;7.950;2023-06-14T08:26:16;98025.22;;;21.62
72054;BMP280;59918;51.280;7.950;2023-06-14T08:28:41;98029.63;;;21.72
72054;BMP280;59918;51.280;7.950;2023-06-14T08:31:10;98028.00;;;21.81
72054;BMP280;59918;51.280;7.950;2023-06-14T08:33:35;98026.41;;;21.90
72054;BMP280;59918;51.280;7.950;2023-06-14T08:36:00;98025.78;;;22.07
72054;BMP280;59918;51.280;7.950;2023-06-14T08:38:26;98025.16;;;22.25
72054;BMP280;59918;51.280;7.950;2023-06-14T08:40:52;98027.47;;;22.32
72054;BMP280;59918;51.280;7.950;2023-06-14T08:43:22;98029.81;;;22.38
72054;BMP280;59918;51.280;7.950;2023-06-14T08:45:48;98030.25;;;22.50
72054;BMP280;59918;51.280;7.950;2023-06-14T08:48:18;98029.66;;;22.58
72054;BMP280;59918;51.280;7.950;2023-06-14T08:50:49;98031.66;;;22.70
72054;BMP280;59918;51.280;7.950;2023-06-14T08:53:14;98032.88;;;22.83
72054;BMP280;59918;51.280;7.950;2023-06-14T08:55:40;98022.31;;;22.93
72054;BMP280;59918;51.280;7.950;2023-06-14T08:58:05;98017.34;;;22.91
72054;BMP280;59918;51.280;7.950;2023-06-14T09:00:30;98012.75;;;23.07
72054;BMP280;59918;51.280;7.950;2023-06-14T09:03:01;98019.72;;;23.16
72054;BMP280;59918;51.280;7.950;2023-06-14T09:05:27;98019.81;;;23.34
72054;BMP280;59918;51.280;7.950;2023-06-14T09:07:54;98012.53;;;23.49
72054;BMP280;59918;51.280;7.950;2023-06-14T09:10:20;98014.06;;;23.55
72054;BMP280;59918;51.280;7.950;2023-06-14T09:12:46;98020.75;;;23.66
72054;BMP280;59918;51.280;7.950;2023-06-14T09:15:11;98018.47;;;23.83
72054;BMP280;59918;51.280;7.950;2023-06-14T09:17:36;98017.97;;;23.99
72054;BMP280;59918;51.280;7.950;2023-06-14T09:20:03;98021.72;;;24.12
72054;BMP280;59918;51.280;7.950;2023-06-14T09:22:32;98030.59;;;24.16
72054;BMP280;59918;51.280;7.950;2023-06-14T09:24:58;98033.19;;;24.20
72054;BMP280;59918;51.280;7.950;2023-06-14T09:27:25;98032.06;;;24.26
72054;BMP280;59918;51.280;7.950;2023-06-14T09:29:51;98030.34;;;24.35
72054;BMP280;59918;51.280;7.950;2023-06-14T09:32:22;98029.16;;;24.46
72054;BMP280;59918;51.280;7.950;2023-06-14T09:34:48;98031.03;;;24.59
72054;BMP280;59918;51.280;7.950;2023-06-14T09:37:26;98022.47;;;24.54
72054;BMP280;59918;51.280;7.950;2023-06-14T09:39:58;98030.53;;;24.75
72054;BMP280;59918;51.280;7.950;2023-06-14T09:42:23;98020.78;;;24.76
72054;BMP280;59918;51.280;7.950;2023-06-14T09:44:49;98015.69;;;24.97
72054;BMP280;59918;51.280;7.950;2023-06-14T09:47:20;98031.31;;;25.21
72054;BMP280;59918;51.280;7.950;2023-06-14T09:49:46;98021.00;;;25.24
72054;BMP280;59918;51.280;7.950;2023-06-14T09:52:14;98023.16;;;25.35
72054;BMP280;59918;51.280;7.950;2023-06-14T09:54:45;98025.28;;;25.47
72054;BMP280;59918;51.280;7.950;2023-06-14T09:57:11;98023.84;;;25.54
72054;BMP280;59918;51.280;7.950;2023-06-14T09:59:36;98027.34;;;25.76
72054;BMP280;59918;51.280;7.950;2023-06-14T10:02:11;98030.47;;;25.92
72054;BMP280;59918;51.280;7.950;2023-06-14T10:04:46;98026.63;;;26.24
72054;BMP280;59918;51.280;7.950;2023-06-14T10:07:20;98014.47;;;26.58
72054;BMP280;59918;51.280;7.950;2023-06-14T10:09:47;98031.81;;;26.94
72054;BMP280;59918;51.280;7.950;2023-06-14T10:12:12;98027.31;;;26.95
72054;BMP280;59918;51.280;7.950;2023-06-14T10:14:37;98028.78;;;27.09
72054;BMP280;59918;51.280;7.950;2023-06-14T10:17:10;98018.53;;;27.38
72054;BMP280;59918;51.280;7.950;2023-06-14T10:22:50;98020.03;;;28.58
72054;BMP280;59918;51.280;7.950;2023-06-14T10:25:34;98009.31;;;29.25
72054;BMP280;59918;51.280;7.950;2023-06-14T10:28:22;98031.97;;;29.79
72054;BMP280;59918;51.280;7.950;2023-06-14T10:31:10;98023.50;;;30.14
72054;BMP280;59918;51.280;7.950;2023-06-14T10:33:40;98024.41;;;30.18
72054;BMP280;59918;51.280;7.950;2023-06-14T10:38:57;98009.13;;;29.67
72054;BMP280;59918;51.280;7.950;2023-06-14T10:41:23;98017.34;;;30.22
72054;BMP280;59918;51.280;7.950;2023-06-14T10:43:48;98007.63;;;30.99
72054;BMP280;59918;51.280;7.950;2023-06-14T10:46:19;98009.47;;;31.42
72054;BMP280;59918;51.280;7.950;2023-06-14T10:48:45;98006.38;;;32.00
72054;BMP280;59918;51.280;7.950;2023-06-14T10:51:20;98004.53;;;32.27
72054;BMP280;59918;51.280;7.950;2023-06-14T10:53:47;98007.25;;;32.54
72054;BMP280;59918;51.280;7.950;2023-06-14T10:56:32;98004.81;;;33.19
72054;BMP280;59918;51.280;7.950;2023-06-14T10:58:58;97992.22;;;33.65
72054;BMP280;59918;51.280;7.950;2023-06-14T11:01:34;97987.56;;;34.12
72054;BMP280;59918;51.280;7.950;2023-06-14T11:04:10;97988.28;;;33.59
72054;BMP280;59918;51.280;7.950;2023-06-14T11:18:50;97996.66;;;32.58
72054;BMP280;59918;51.280;7.950;2023-06-14T11:21:17;97986.06;;;33.46
72054;BMP280;59918;51.280;7.950;2023-06-14T11:23:49;97987.19;;;34.47
72054;BMP280;59918;51.280;7.950;2023-06-14T11:26:14;97996.25;;;33.90
72054;BMP280;59918;51.280;7.950;2023-06-14T11:28:40;97984.88;;;33.93
72054;BMP280;59918;51.280;7.950;2023-06-14T11:31:07;97999.75;;;32.60
72054;BMP280;59918;51.280;7.950;2023-06-14T11:33:32;97992.66;;;31.74
72054;BMP280;59918;51.280;7.950;2023-06-14T11:36:02;98007.63;;;30.99
72054;BMP280;59918;51.280;7.950;2023-06-14T11:38:28;98028.31;;;30.41
72054;BMP280;59918;51.280;7.950;2023-06-14T11:41:00;98006.47;;;32.03
72054;BMP280;59918;51.280;7.950;2023-06-14T11:43:26;97991.44;;;34.14
72054;BMP280;59918;51.280;7.950;2023-06-14T11:45:52;97984.72;;;34.58
72054;BMP280;59918;51.280;7.950;2023-06-14T11:48:17;98001.69;;;33.93
72054;BMP280;59918;51.280;7.950;2023-06-14T11:50:43;97995.56;;;34.83
72054;BMP280;59918;51.280;7.950;2023-06-14T11:53:08;97979.88;;;35.04
72054;BMP280;59918;51.280;7.950;2023-06-14T11:55:37;97996.25;;;34.80
72054;BMP280;59918;51.280;7.950;2023-06-14T11:58:02;97994.41;;;34.09
72054;BMP280;59918;51.280;7.950;2023-06-14T12:00:28;97990.50;;;35.23
72054;BMP280;59918;51.280;7.950;2023-06-14T12:02:54;97988.59;;;36.55
72054;BMP280;59918;51.280;7.950;2023-06-14T12:05:21;97979.00;;;37.72
72054;BMP280;59918;51.280;7.950;2023-06-14T12:07:50;97992.53;;;38.74
72054;BMP280;59918;51.280;7.950;2023-06-14T12:10:16;97987.66;;;39.31
72054;BMP280;59918;51.280;7.950;2023-06-14T12:12:41;97979.59;;;39.38
72054;BMP280;59918;51.280;7.950;2023-06-14T12:15:08;97972.59;;;40.03
72054;BMP280;59918;51.280;7.950;2023-06-14T12:17:38;97972.44;;;40.48
72054;BMP280;59918;51.280;7.950;2023-06-14T12:20:08;97982.75;;;41.24
72054;BMP280;59918;51.280;7.950;2023-06-14T12:22:53;97964.63;;;41.68
72054;BMP280;59918;51.280;7.950;2023-06-14T12:27:49;97969.28;;;41.24
72054;BMP280;59918;51.280;7.950;2023-06-14T12:30:14;97972.63;;;41.35
72054;BMP280;59918;51.280;7.950;2023-06-14T12:32:40;97966.50;;;41.74
72054;BMP280;59918;51.280;7.950;2023-06-14T12:35:05;97969.78;;;41.05
72054;BMP280;59918;51.280;7.950;2023-06-14T12:37:30;97966.94;;;40.65
72054;BMP280;59918;51.280;7.950;2023-06-14T12:39:56;97974.97;;;39.46
72054;BMP280;59918;51.280;7.950;2023-06-14T12:42:27;97980.53;;;37.70
72054;BMP280;59918;51.280;7.950;2023-06-14T12:44:52;97981.97;;;37.54
72054;BMP280;59918;51.280;7.950;2023-06-14T12:47:17;97974.16;;;38.90
72054;BMP280;59918;51.280;7.950;2023-06-14T12:49:42;97969.72;;;40.51
72054;BMP280;59918;51.280;7.950;2023-06-14T12:52:08;97962.69;;;41.68
72054;BMP280;59918;51.280;7.950;2023-06-14T12:54:37;97964.16;;;41.36
72054;BMP280;59918;51.280;7.950;2023-06-14T12:57:02;97974.94;;;39.01
72054;BMP280;59918;51.280;7.950;2023-06-14T12:59:27;97972.00;;;37.11
72054;BMP280;59918;51.280;7.950;2023-06-14T13:01:52;97981.16;;;35.58
72054;BMP280;59918;51.280;7.950;2023-06-14T13:04:18;97981.97;;;36.13
72054;BMP280;59918;51.280;7.950;2023-06-14T13:06:43;97971.75;;;37.76
72054;BMP280;59918;51.280;7.950;2023-06-14T13:09:08;97981.88;;;37.47
72054;BMP280;59918;51.280;7.950;2023-06-14T13:11:37;97976.00;;;36.91
72054;BMP280;59918;51.280;7.950;2023-06-14T13:14:02;97970.88;;;38.29
72054;BMP280;59918;51.280;7.950;2023-06-14T13:16:27;97978.97;;;37.65
72054;BMP280;59918;51.280;7.950;2023-06-14T13:18:52;97973.84;;;39.22
72054;BMP280;59918;51.280;7.950;2023-06-14T13:21:17;97977.25;;;39.75
72054;BMP280;59918;51.280;7.950;2023-06-14T13:23:43;97967.25;;;38.99
72054;BMP280;59918;51.280;7.950;2023-06-14T13:26:08;97968.75;;;39.93
72054;BMP280;59918;51.280;7.950;2023-06-14T13:28:36;97969.88;;;41.81
72054;BMP280;59918;51.280;7.950;2023-06-14T13:31:02;97969.41;;;42.23
72054;BMP280;59918;51.280;7.950;2023-06-14T13:33:27;97974.47;;;43.06
72054;BMP280;59918;51.280;7.950;2023-06-14T13:35:52;97967.97;;;43.49
72054;BMP280;59918;51.280;7.950;2023-06-14T13:38:17;97963.03;;;43.67
72054;BMP280;59918;51.280;7.950;2023-06-14T13:40:43;97958.72;;;43.69
72054;BMP280;59918;51.280;7.950;2023-06-14T13:43:08;97957.25;;;42.41
72054;BMP280;59918;51.280;7.950;2023-06-14T13:45:36;97969.28;;;41.20
72054;BMP280;59918;51.280;7.950;2023-06-14T13:48:01;97966.81;;;40.04
72054;BMP280;59918;51.280;7.950;2023-06-14T13:50:26;97970.72;;;39.13
72054;BMP280;59918;51.280;7.950;2023-06-14T13:52:52;97966.13;;;39.66
72054;BMP280;59918;51.280;7.950;2023-06-14T13:55:17;97960.66;;;40.85
72054;BMP280;59918;51.280;7.950;2023-06-14T13:57:42;97973.78;;;39.02
72054;BMP280;59918;51.280;7.950;2023-06-14T14:00:08;97968.53;;;37.07
72054;BMP280;59918;51.280;7.950;2023-06-14T14:02:39;97974.22;;;35.53
72054;BMP280;59918;51.280;7.950;2023-06-14T14:05:05;97985.28;;;34.66
72054;BMP280;59918;51.280;7.950;2023-06-14T14:07:30;97978.41;;;35.29
72054;BMP280;59918;51.280;7.950;2023-06-14T14:10:00;97972.19;;;36.92
72054;BMP280;59918;51.280;7.950;2023-06-14T14:12:25;97970.06;;;38.15
72054;BMP280;59918;51.280;7.950;2023-06-14T14:14:51;97963.97;;;40.39
72054;BMP280;59918;51.280;7.950;2023-06-14T14:17:16;97953.19;;;42.56
72054;BMP280;59918;51.280;7.950;2023-06-14T14:19:41;97941.38;;;44.25
72054;BMP280;59918;51.280;7.950;2023-06-14T14:22:06;97940.97;;;45.72
72054;BMP280;59918;51.280;7.950;2023-06-14T14:24:31;97944.22;;;45.95
72054;BMP280;59918;51.280;7.950;2023-06-14T14:27:03;97943.50;;;43.98
72054;BMP280;59918;51.280;7.950;2023-06-14T14:29:28;97959.84;;;40.95